ilmateenistus.ee keskkonnaagentuur.ee
EETN Tallinn
FTEO31 EETN 031700
TAF EETN 031700Z 0318/0418 02010KT 9999 SCT015 BKN025 PROB40 TEMPO
    0318/0321 3000 SHSN BKN008 SCT015CB TEMPO 0321/0410 2000 SHSN BKN005
    BKN012CB TEMPO 0415/0418 2000 SHSN BKN008 SCT015CB=

METAR EETN 032250Z 33003KT 300V360 9999 -SN OVC033 M03/M06 Q1000=
Tallinn
EEKA Kärdla
METAR EEKA 032220Z NIL=
Kärdla
EEKE Kuressaare
METAR EEKE 032250Z AUTO 36002KT 9000NDV NCD M12/M12 Q1002=
Kuressaare
EEPU Pärnu
METAR EEPU 032220Z NIL=
Pärnu
EETU Tartu
METAR EETU 032250Z AUTO 29007KT 260V330 9999 OVC033/// M04/M06 Q0999=
Tartu
EEEI Ämari
METAR EEEI 032250Z AUTO 20001KT 9999 -SN FEW020/// BKN027/// OVC034/// M04/M06 Q1001=
Ämari